Time;durP1;ratioP1;P1;durP2;ratioP2;P2;SDS_P1;SDS_P2;PMS_P1;PMS_P2;Temp;Humidity;BMP_temperature;BMP_pressure;BME280_temperature;BME280_humidity;BME280_pressure;Samples;Min_cycle;Max_cycle;Signal;HPM_P1;HPM_P2
2021/04/02 00:04:00;;;;;;;6.10;4.90;;;15.80;27.70;;;;;;10457410;28;20228;-72
2021/04/02 00:09:03;;;;;;;8.10;4.87;;;15.80;28.00;;;;;;10456950;28;20237;-72
2021/04/02 00:14:06;;;;;;;7.87;4.93;;;15.70;27.80;;;;;;10457073;28;20653;-72
2021/04/02 00:19:09;;;;;;;7.47;4.57;;;15.60;27.80;;;;;;10456824;28;20237;-74
2021/04/02 00:24:11;;;;;;;5.67;4.70;;;15.60;28.00;;;;;;10456824;28;20596;-74
2021/04/02 00:29:13;;;;;;;5.27;4.47;;;15.60;28.00;;;;;;10456108;28;20248;-74
2021/04/02 00:34:16;;;;;;;5.87;4.47;;;15.50;27.90;;;;;;10456447;28;20229;-74
2021/04/02 00:39:19;;;;;;;5.90;4.00;;;15.40;28.00;;;;;;10456000;28;20652;-74
2021/04/02 00:44:22;;;;;;;5.70;4.00;;;15.30;27.80;;;;;;10456148;28;20239;-74
2021/04/02 00:49:25;;;;;;;8.50;6.20;;;15.30;27.80;;;;;;10455734;28;20233;-74
2021/04/02 00:54:27;;;;;;;9.63;6.17;;;15.20;28.10;;;;;;10455548;28;20228;-74
2021/04/02 00:59:29;;;;;;;13.47;8.90;;;15.20;27.90;;;;;;10455084;28;20237;-74
2021/04/02 01:04:32;;;;;;;18.30;14.43;;;15.10;27.90;;;;;;10453509;28;20705;-74
2021/04/02 01:09:34;;;;;;;21.67;15.70;;;15.00;28.00;;;;;;10454931;28;20232;-74
2021/04/02 01:14:36;;;;;;;18.37;15.17;;;14.90;28.00;;;;;;10454171;28;20225;-74
2021/04/02 01:19:45;;;;;;;25.20;18.90;;;14.90;28.00;;;;;;10454462;28;20248;-74
2021/04/02 01:25:11;;;;;;;20.43;15.93;;;14.90;28.60;;;;;;10454359;28;20240;-74
2021/04/02 01:30:16;;;;;;;22.03;16.63;;;14.80;28.60;;;;;;10453831;28;20239;-74
2021/04/02 01:35:23;;;;;;;24.23;18.77;;;14.80;28.20;;;;;;10454380;28;20225;-74
2021/04/02 01:40:30;;;;;;;32.03;24.10;;;14.80;28.40;;;;;;10453416;28;20233;-74
2021/04/02 01:45:34;;;;;;;33.63;25.23;;;14.80;28.50;;;;;;10452884;28;20233;-74
2021/04/02 01:50:38;;;;;;;34.73;24.53;;;14.70;28.20;;;;;;10452053;28;20224;-74
2021/04/02 01:55:42;;;;;;;30.73;22.63;;;14.70;28.30;;;;;;10452142;28;20239;-74
2021/04/02 02:00:48;;;;;;;28.30;20.20;;;14.70;28.20;;;;;;10452655;28;20233;-74
2021/04/02 02:05:54;;;;;;;36.80;26.93;;;14.60;28.50;;;;;;10452728;28;20287;-74
2021/04/02 02:11:00;;;;;;;34.93;26.70;;;14.60;28.60;;;;;;10451358;28;20593;-74
2021/04/02 02:16:06;;;;;;;36.03;27.23;;;14.60;28.80;;;;;;10443477;28;20704;-74
2021/04/02 02:21:11;;;;;;;31.33;25.07;;;14.50;28.80;;;;;;10452032;28;20237;-74
2021/04/02 02:26:14;;;;;;;35.20;27.10;;;14.50;28.80;;;;;;10451956;28;20642;-74
2021/04/02 02:31:17;;;;;;;37.43;27.90;;;14.40;28.70;;;;;;10451553;28;20720;-74
2021/04/02 02:36:19;;;;;;;32.77;27.83;;;14.40;28.80;;;;;;10451446;28;20221;-74
2021/04/02 02:41:25;;;;;;;34.17;26.17;;;14.40;28.70;;;;;;10451058;28;20241;-74
2021/04/02 02:46:29;;;;;;;30.83;25.17;;;14.30;28.70;;;;;;10451184;28;20576;-74
2021/04/02 02:51:33;;;;;;;33.23;26.43;;;14.30;29.00;;;;;;10450924;28;20255;-74
2021/04/02 02:56:37;;;;;;;32.73;25.17;;;14.30;29.10;;;;;;10450876;28;20366;-74
2021/04/02 03:01:42;;;;;;;33.00;26.13;;;14.20;29.10;;;;;;10450354;28;20229;-74
2021/04/02 03:06:46;;;;;;;32.43;25.83;;;14.20;29.00;;;;;;10450517;28;20267;-74
2021/04/02 03:11:50;;;;;;;27.23;21.73;;;14.20;28.90;;;;;;10450093;28;20232;-74
2021/04/02 03:16:56;;;;;;;28.10;22.43;;;14.10;28.90;;;;;;10450053;28;20228;-74
2021/04/02 03:22:01;;;;;;;24.47;19.70;;;14.10;29.10;;;;;;10449815;28;20225;-74
2021/04/02 03:27:03;;;;;;;27.27;20.97;;;14.00;28.80;;;;;;10449166;28;20240;-74
2021/04/02 03:32:10;;;;;;;30.43;25.07;;;14.00;28.80;;;;;;10449735;28;20229;-74
2021/04/02 03:37:13;;;;;;;29.60;23.93;;;14.00;29.30;;;;;;10449659;28;20231;-74
2021/04/02 03:42:18;;;;;;;32.93;26.47;;;13.90;28.90;;;;;;10449400;28;20605;-74
2021/04/02 03:47:23;;;;;;;29.47;23.60;;;13.80;29.10;;;;;;10449228;28;20278;-74
2021/04/02 03:52:31;;;;;;;33.93;24.17;;;13.80;29.20;;;;;;10449255;28;20221;-74
2021/04/02 03:57:35;;;;;;;32.90;25.93;;;13.70;29.50;;;;;;10448814;28;20728;-74
2021/04/02 04:02:39;;;;;;;32.47;25.93;;;13.60;29.30;;;;;;10449115;28;20229;-74
2021/04/02 04:07:43;;;;;;;32.17;26.73;;;13.60;29.40;;;;;;10448804;28;20236;-74
2021/04/02 04:12:49;;;;;;;32.20;25.83;;;13.50;29.40;;;;;;10449162;28;20229;-74
2021/04/02 04:17:54;;;;;;;30.30;25.13;;;13.50;29.40;;;;;;10448673;28;20255;-74
2021/04/02 04:22:57;;;;;;;29.77;24.80;;;13.40;29.40;;;;;;10448836;28;20236;-74
2021/04/02 04:27:59;;;;;;;26.83;22.60;;;13.40;29.50;;;;;;10448413;28;20229;-74
2021/04/02 04:33:03;;;;;;;23.53;19.83;;;13.30;29.30;;;;;;10448433;28;20217;-74
2021/04/02 04:38:06;;;;;;;24.23;20.70;;;13.20;29.40;;;;;;10448104;28;20735;-74
2021/04/02 04:43:12;;;;;;;21.80;19.47;;;13.10;29.40;;;;;;10455971;28;20661;-74
2021/04/02 04:48:16;;;;;;;23.37;19.40;;;13.00;30.20;;;;;;10455459;28;20229;-74
2021/04/02 04:53:21;;;;;;;22.40;18.77;;;12.90;30.00;;;;;;10473943;22;20228;-73
2021/04/02 04:58:28;;;;;;;20.43;17.10;;;12.90;29.60;;;;;;10525337;28;20240;-74
2021/04/02 05:03:33;;;;;;;19.53;17.10;;;12.80;29.80;;;;;;10485201;28;20256;-74
2021/04/02 05:08:40;;;;;;;21.83;18.27;;;12.80;30.00;;;;;;10494132;28;20228;-74
2021/04/02 05:13:44;;;;;;;19.33;17.37;;;12.80;30.20;;;;;;10490992;28;20224;-73
2021/04/02 05:18:48;;;;;;;20.43;17.87;;;12.80;30.00;;;;;;10489383;28;20328;-74
2021/04/02 05:23:51;;;;;;;20.87;16.93;;;12.70;30.10;;;;;;10490397;28;20228;-74
2021/04/02 05:28:56;;;;;;;20.20;16.27;;;12.70;30.10;;;;;;10491272;28;20236;-74
2021/04/02 05:33:59;;;;;;;18.07;15.73;;;12.70;30.10;;;;;;10488405;28;20299;-74
2021/04/02 05:39:01;;;;;;;15.40;13.77;;;12.70;30.10;;;;;;10492855;28;20251;-73
2021/04/02 05:44:10;;;;;;;17.83;13.73;;;12.70;30.10;;;;;;10491402;28;22989;-73
2021/04/02 05:49:14;;;;;;;13.03;11.83;;;12.60;30.00;;;;;;10491550;28;20601;-74
2021/04/02 05:54:22;;;;;;;12.93;11.63;;;12.60;30.00;;;;;;10488809;28;20566;-74
2021/04/02 05:59:24;;;;;;;12.10;10.90;;;12.50;30.00;;;;;;10487053;28;20228;-74
2021/04/02 06:04:29;;;;;;;12.27;10.97;;;12.40;30.00;;;;;;10491213;28;20596;-74
2021/04/02 06:09:31;;;;;;;11.50;10.40;;;12.30;29.90;;;;;;10488583;28;20236;-74
2021/04/02 06:14:34;;;;;;;11.33;9.93;;;12.30;29.90;;;;;;10488729;28;20248;-74
2021/04/02 06:19:37;;;;;;;12.40;10.97;;;12.20;29.80;;;;;;10490121;28;20228;-74
2021/04/02 06:24:40;;;;;;;10.83;9.83;;;12.20;29.80;;;;;;10487869;28;20386;-74
2021/04/02 06:29:44;;;;;;;10.10;9.13;;;12.10;29.70;;;;;;10489814;28;20316;-74
2021/04/02 06:34:49;;;;;;;10.07;9.17;;;12.10;29.70;;;;;;10487525;28;20216;-74
2021/04/02 06:39:53;;;;;;;10.30;9.23;;;12.10;30.00;;;;;;10483631;28;20232;-74
2021/04/02 06:44:59;;;;;;;10.10;9.20;;;12.00;29.70;;;;;;10489481;28;20787;-75
2021/04/02 06:50:13;;;;;;;10.17;9.23;;;12.00;30.00;;;;;;10481790;28;20242;-74
2021/04/02 06:55:15;;;;;;;10.70;9.63;;;12.00;30.60;;;;;;10489773;28;20216;-74
2021/04/02 07:00:20;;;;;;;9.90;9.00;;;12.10;30.00;;;;;;10481128;28;20232;-74
2021/04/02 07:05:25;;;;;;;9.43;8.50;;;12.20;30.00;;;;;;10481800;28;20597;-74
2021/04/02 07:10:28;;;;;;;8.67;7.87;;;12.20;29.80;;;;;;10482154;28;20232;-74
2021/04/02 07:15:34;;;;;;;8.20;7.43;;;12.30;29.90;;;;;;10487172;28;20240;-74
2021/04/02 07:20:37;;;;;;;9.10;8.30;;;12.30;29.90;;;;;;10483701;28;20311;-74
2021/04/02 07:25:39;;;;;;;9.20;8.30;;;12.30;29.90;;;;;;10488191;28;20235;-74
2021/04/02 07:30:44;;;;;;;8.60;7.80;;;12.40;30.00;;;;;;10478254;28;20607;-74
2021/04/02 07:35:55;;;;;;;8.73;7.93;;;12.40;30.00;;;;;;10488571;28;20708;-74
2021/04/02 07:40:58;;;;;;;8.30;7.50;;;12.40;30.00;;;;;;10485501;28;20704;-74
2021/04/02 07:46:02;;;;;;;8.63;7.93;;;12.50;30.00;;;;;;10487820;28;20228;-74
2021/04/02 07:51:05;;;;;;;9.27;8.37;;;12.50;30.00;;;;;;10485626;28;20240;-73
2021/04/02 07:56:10;;;;;;;8.23;7.53;;;12.60;30.00;;;;;;10487124;28;20228;-73
2021/04/02 08:01:15;;;;;;;8.73;7.83;;;12.70;30.10;;;;;;10486000;28;20242;-73
2021/04/02 08:06:33;;;;;;;8.43;7.70;;;12.70;30.10;;;;;;10485305;28;20533;-73
2021/04/02 08:11:37;;;;;;;8.73;7.93;;;12.90;30.30;;;;;;10482015;28;20658;-73
2021/04/02 08:16:50;;;;;;;8.23;7.53;;;12.90;29.80;;;;;;10493609;28;20315;-74
2021/04/02 08:21:56;;;;;;;8.60;7.80;;;13.00;30.00;;;;;;10493008;28;20224;-73
2021/04/02 08:26:59;;;;;;;9.03;8.23;;;13.10;30.00;;;;;;10487757;28;20232;-74
2021/04/02 08:32:02;;;;;;;8.17;7.47;;;13.20;29.60;;;;;;10495117;28;20228;-73
2021/04/02 08:37:07;;;;;;;9.57;8.67;;;13.30;29.80;;;;;;10492074;28;20238;-73
2021/04/02 08:42:11;;;;;;;9.00;8.20;;;13.40;29.80;;;;;;10492695;28;20239;-73
2021/04/02 08:47:15;;;;;;;9.17;8.33;;;13.60;29.80;;;;;;10494060;28;20240;-73
2021/04/02 08:52:20;;;;;;;9.13;8.23;;;13.80;29.80;;;;;;10488506;28;20224;-74
2021/04/02 08:57:25;;;;;;;9.00;8.20;;;13.90;29.60;;;;;;10491689;28;20613;-74
2021/04/02 09:02:29;;;;;;;9.50;8.60;;;14.10;29.60;;;;;;10490004;28;20230;-73
2021/04/02 09:07:37;;;;;;;10.10;9.20;;;14.20;29.70;;;;;;10490493;28;20237;-73
2021/04/02 09:12:44;;;;;;;12.40;11.20;;;14.30;29.50;;;;;;10488321;28;20224;-74
2021/04/02 09:17:47;;;;;;;10.00;9.00;;;14.40;29.00;;;;;;10493631;28;20235;-74
2021/04/02 09:22:50;;;;;;;12.73;11.50;;;14.50;29.10;;;;;;10488809;28;20224;-74
2021/04/02 09:27:52;;;;;;;10.87;9.87;;;14.50;29.10;;;;;;10491812;28;20708;-74
2021/04/02 09:32:54;;;;;;;10.33;9.43;;;14.60;29.10;;;;;;10488808;28;20232;-74
2021/04/02 09:37:58;;;;;;;10.73;9.73;;;14.70;29.20;;;;;;10491144;28;20700;-74
2021/04/02 09:43:00;;;;;;;10.70;9.80;;;14.90;29.00;;;;;;10490095;28;20228;-74
2021/04/02 09:48:17;;;;;;;11.00;10.00;;;15.10;29.10;;;;;;10462667;28;20726;-73
2021/04/02 09:53:22;;;;;;;10.33;9.33;;;15.20;28.90;;;;;;10489816;28;20228;-74
2021/04/02 09:58:24;;;;;;;10.43;9.33;;;15.30;28.70;;;;;;10487524;28;20402;-74
2021/04/02 10:03:27;;;;;;;9.70;8.70;;;15.40;28.70;;;;;;10485762;28;20224;-74
2021/04/02 10:08:30;;;;;;;9.63;8.73;;;15.50;28.50;;;;;;10490390;28;20728;-74
2021/04/02 10:13:34;;;;;;;9.27;8.47;;;15.60;29.00;;;;;;10485732;28;20248;-74
2021/04/02 10:18:37;;;;;;;10.20;9.30;;;15.80;29.00;;;;;;10488682;28;20235;-74
2021/04/02 10:23:40;;;;;;;10.10;9.13;;;15.90;28.40;;;;;;10490319;28;20231;-74
2021/04/02 10:28:43;;;;;;;9.67;8.93;;;16.00;28.20;;;;;;10488338;28;20782;-74
2021/04/02 10:33:46;;;;;;;9.67;8.87;;;16.00;28.20;;;;;;10487058;28;20578;-74
2021/04/02 10:38:49;;;;;;;9.53;8.67;;;16.10;28.80;;;;;;10482944;28;20217;-75
2021/04/02 10:43:52;;;;;;;9.37;8.57;;;16.30;27.90;;;;;;10481341;28;20320;-74
2021/04/02 10:48:54;;;;;;;9.10;8.40;;;16.50;27.50;;;;;;10484919;28;20228;-75
2021/04/02 10:54:01;;;;;;;8.60;7.80;;;16.60;27.30;;;;;;10486204;28;20259;-74
2021/04/02 10:59:04;;;;;;;8.70;8.00;;;16.60;27.00;;;;;;10489244;28;20228;-74
2021/04/02 11:04:06;;;;;;;8.83;8.13;;;16.60;27.00;;;;;;10487259;28;20256;-74
2021/04/02 11:09:09;;;;;;;8.60;7.60;;;16.60;26.70;;;;;;10488198;28;20600;-74
2021/04/02 11:14:12;;;;;;;7.97;7.27;;;16.70;26.60;;;;;;10482280;28;20702;-74
2021/04/02 11:19:14;;;;;;;7.97;7.17;;;16.70;26.60;;;;;;10471067;28;20250;-74
2021/04/02 11:24:17;;;;;;;8.60;7.80;;;16.80;26.50;;;;;;10485612;28;20746;-74
2021/04/02 11:29:19;;;;;;;8.20;7.43;;;16.80;26.10;;;;;;10486491;28;20602;-74
2021/04/02 11:34:22;;;;;;;8.77;7.97;;;16.90;26.40;;;;;;10485550;28;20685;-74
2021/04/02 11:39:25;;;;;;;10.03;9.03;;;16.90;26.00;;;;;;10488228;28;20228;-75
2021/04/02 11:44:27;;;;;;;8.83;8.03;;;16.90;25.70;;;;;;10484910;28;20306;-73
2021/04/02 11:49:29;;;;;;;7.93;7.20;;;16.90;26.00;;;;;;10489101;28;20235;-73
2021/04/02 11:54:33;;;;;;;8.17;7.40;;;16.90;25.80;;;;;;10493907;28;20596;-73
2021/04/02 11:59:35;;;;;;;7.17;6.47;;;17.00;24.90;;;;;;10496479;28;20236;-73
2021/04/02 12:04:37;;;;;;;8.00;7.20;;;17.00;24.90;;;;;;10490699;28;20238;-73
2021/04/02 12:09:40;;;;;;;8.27;7.57;;;16.90;24.60;;;;;;10494677;28;20243;-73
2021/04/02 12:14:43;;;;;;;7.57;6.87;;;16.90;24.30;;;;;;10491905;28;20229;-73
2021/04/02 12:19:45;;;;;;;7.70;6.93;;;16.90;24.80;;;;;;10491401;28;20229;-73
2021/04/02 12:24:48;;;;;;;7.57;6.80;;;16.90;24.90;;;;;;10494511;28;20785;-73
2021/04/02 12:29:51;;;;;;;7.60;6.80;;;16.90;24.50;;;;;;10491235;28;20717;-73
2021/04/02 12:34:57;;;;;;;7.33;6.60;;;16.90;24.30;;;;;;10495288;28;20228;-73
2021/04/02 12:40:01;;;;;;;7.10;6.50;;;16.90;24.40;;;;;;10491781;28;20239;-71
2021/04/02 12:45:04;;;;;;;8.10;7.30;;;17.00;24.00;;;;;;10490524;28;20277;-73
2021/04/02 12:50:08;;;;;;;7.93;7.20;;;17.00;23.30;;;;;;10493894;28;20234;-73
2021/04/02 12:55:13;;;;;;;7.13;6.50;;;16.90;23.60;;;;;;10491542;28;20662;-73
2021/04/02 13:00:18;;;;;;;6.87;6.20;;;16.90;23.70;;;;;;10494008;28;20715;-73
2021/04/02 13:05:20;;;;;;;6.37;5.77;;;16.90;23.80;;;;;;10491924;28;20234;-73
2021/04/02 13:10:24;;;;;;;6.77;6.17;;;17.00;24.00;;;;;;10489408;28;20716;-73
2021/04/02 13:15:27;;;;;;;6.13;5.53;;;17.00;23.50;;;;;;10485430;28;20216;-71
2021/04/02 13:20:31;;;;;;;5.67;5.17;;;17.00;23.90;;;;;;10477179;28;20567;-73
2021/04/02 13:25:34;;;;;;;6.00;5.50;;;17.10;23.40;;;;;;10491582;28;20229;-73
2021/04/02 13:30:37;;;;;;;5.60;4.80;;;17.10;23.40;;;;;;10483328;28;20328;-73
2021/04/02 13:35:39;;;;;;;5.73;4.40;;;17.10;23.40;;;;;;10489445;28;20224;-73
2021/04/02 13:40:42;;;;;;;5.17;4.70;;;17.10;23.70;;;;;;10490178;28;20239;-72
2021/04/02 13:45:44;;;;;;;4.70;4.30;;;17.20;24.00;;;;;;10486370;28;20232;-73
2021/04/02 13:50:47;;;;;;;4.90;4.50;;;17.20;23.40;;;;;;10491357;28;20228;-73
2021/04/02 13:55:50;;;;;;;5.00;4.50;;;17.20;23.40;;;;;;10488366;28;20228;-73
2021/04/02 14:00:52;;;;;;;5.13;4.73;;;17.20;23.40;;;;;;10490786;28;20232;-72
2021/04/02 14:05:54;;;;;;;5.30;4.80;;;17.30;23.50;;;;;;10488670;28;20232;-72
2021/04/02 14:10:57;;;;;;;4.80;4.40;;;17.30;23.50;;;;;;10487089;28;20763;-73
2021/04/02 14:15:59;;;;;;;5.17;4.77;;;17.30;23.20;;;;;;10485065;28;20762;-73
2021/04/02 14:21:01;;;;;;;4.30;3.90;;;17.30;23.10;;;;;;10485977;28;20227;-73
2021/04/02 14:26:07;;;;;;;4.17;3.87;;;17.30;23.30;;;;;;10482739;28;20696;-73
2021/04/02 14:31:09;;;;;;;4.20;3.90;;;17.30;23.30;;;;;;10487085;28;20605;-72
2021/04/02 14:36:12;;;;;;;4.40;4.00;;;17.30;23.50;;;;;;10489943;28;20316;-72
2021/04/02 14:41:15;;;;;;;5.20;4.70;;;17.30;23.50;;;;;;10486918;28;20232;-72
2021/04/02 14:46:37;;;;;;;5.67;5.17;;;17.30;23.40;;;;;;10487878;28;20233;-72
2021/04/02 14:51:39;;;;;;;4.90;4.50;;;17.30;23.50;;;;;;10484439;28;20277;-72
2021/04/02 14:56:42;;;;;;;5.43;4.93;;;17.30;23.50;;;;;;10488166;28;20742;-70
2021/04/02 15:01:44;;;;;;;5.57;5.10;;;17.30;23.50;;;;;;10482330;28;20224;-72
2021/04/02 15:06:47;;;;;;;5.40;4.90;;;17.30;23.50;;;;;;10486781;28;20228;-72
2021/04/02 15:11:50;;;;;;;5.77;5.27;;;17.30;23.50;;;;;;10487941;28;20228;-72
2021/04/02 15:16:52;;;;;;;5.67;5.27;;;17.20;23.20;;;;;;10484543;28;20348;-73
2021/04/02 15:21:54;;;;;;;17.20;15.70;;;17.20;23.40;;;;;;10487861;28;20238;-73
2021/04/02 15:26:57;;;;;;;6.90;6.30;;;17.20;23.40;;;;;;10481054;28;20825;-73
2021/04/02 15:31:59;;;;;;;13.00;11.03;;;17.20;23.40;;;;;;10483054;28;20228;-73
2021/04/02 15:37:04;;;;;;;19.80;17.80;;;17.10;23.40;;;;;;10483701;28;20224;-73
2021/04/02 15:42:08;;;;;;;9.00;8.20;;;17.00;23.20;;;;;;10483270;28;20227;-73
2021/04/02 15:47:12;;;;;;;5.93;5.43;;;17.00;23.30;;;;;;10482973;28;20425;-73
2021/04/02 15:52:14;;;;;;;5.00;4.60;;;16.90;23.20;;;;;;10483331;28;20262;-72
2021/04/02 15:57:17;;;;;;;4.53;4.13;;;16.80;23.10;;;;;;10481768;28;20468;-72
2021/04/02 16:02:19;;;;;;;4.10;3.80;;;16.80;23.10;;;;;;10485289;28;20323;-72
2021/04/02 16:07:21;;;;;;;3.43;3.23;;;16.70;23.10;;;;;;10484882;28;20240;-72
2021/04/02 16:12:24;;;;;;;3.10;2.90;;;16.70;23.10;;;;;;10479135;28;20696;-72
2021/04/02 16:17:27;;;;;;;3.30;3.00;;;16.60;23.00;;;;;;10482036;28;20235;-71
2021/04/02 16:22:29;;;;;;;2.70;2.50;;;16.40;22.90;;;;;;10484732;28;20224;-72
2021/04/02 16:27:32;;;;;;;2.80;2.60;;;16.40;22.90;;;;;;10485563;28;20232;-72
2021/04/02 16:32:35;;;;;;;2.33;2.13;;;16.20;23.10;;;;;;10499044;28;20220;-72
2021/04/02 16:37:37;;;;;;;2.40;1.83;;;16.10;23.40;;;;;;10489116;28;20620;-72
2021/04/02 16:42:42;;;;;;;2.30;2.20;;;16.00;23.40;;;;;;10492138;28;20708;-72
2021/04/02 16:47:45;;;;;;;2.13;2.00;;;15.90;23.50;;;;;;10493941;28;20232;-72
2021/04/02 16:52:47;;;;;;;2.30;2.20;;;15.70;23.70;;;;;;10496580;28;20248;-72
2021/04/02 16:57:51;;;;;;;2.00;1.90;;;15.60;23.70;;;;;;10506559;28;20221;-72
2021/04/02 17:02:53;;;;;;;1.97;1.87;;;15.40;23.70;;;;;;10498311;28;20222;-72
2021/04/02 17:07:55;;;;;;;2.07;1.97;;;15.20;23.70;;;;;;10495578;28;20232;-72
2021/04/02 17:13:00;;;;;;;1.83;1.73;;;15.00;23.90;;;;;;10491284;28;20236;-72
2021/04/02 17:18:02;;;;;;;2.00;1.90;;;14.80;23.90;;;;;;10490384;28;20589;-71
2021/04/02 17:23:04;;;;;;;2.20;2.10;;;14.60;24.00;;;;;;10489765;28;20216;-72
2021/04/02 17:28:07;;;;;;;1.97;1.87;;;14.40;24.00;;;;;;10483969;28;20232;-72
2021/04/02 17:33:10;;;;;;;1.80;1.70;;;14.30;24.10;;;;;;10492164;28;20599;-72
2021/04/02 17:38:12;;;;;;;1.97;1.87;;;14.20;24.20;;;;;;10488657;28;20246;-72
2021/04/02 17:43:15;;;;;;;2.60;2.40;;;14.10;24.40;;;;;;10488592;28;20577;-71
2021/04/02 17:48:18;;;;;;;2.40;2.20;;;14.10;24.30;;;;;;10486947;28;20316;-72
2021/04/02 17:53:21;;;;;;;2.70;2.23;;;14.00;24.40;;;;;;10495951;28;20232;-72
2021/04/02 17:58:24;;;;;;;2.30;2.10;;;13.90;24.30;;;;;;10489500;28;20251;-73
2021/04/02 18:03:26;;;;;;;3.23;2.60;;;13.90;24.30;;;;;;10481924;28;20232;-72
2021/04/02 18:08:28;;;;;;;2.77;2.57;;;13.70;24.30;;;;;;10488278;28;20716;-72
2021/04/02 18:13:33;;;;;;;2.70;2.50;;;13.70;24.40;;;;;;10486984;28;20224;-72
2021/04/02 18:18:35;;;;;;;3.20;2.90;;;13.70;24.50;;;;;;10488781;28;20229;-72
2021/04/02 18:23:37;;;;;;;2.90;2.70;;;13.60;24.50;;;;;;10487519;28;20224;-72
2021/04/02 18:28:40;;;;;;;2.97;2.77;;;13.50;24.50;;;;;;10484374;28;20220;-72
2021/04/02 18:33:42;;;;;;;2.80;2.60;;;13.50;24.60;;;;;;10486492;28;20220;-72
2021/04/02 18:38:44;;;;;;;4.90;3.63;;;13.50;24.60;;;;;;10486997;28;20224;-72
2021/04/02 18:43:47;;;;;;;3.43;3.13;;;13.40;24.70;;;;;;10488932;28;20224;-72
2021/04/02 18:48:50;;;;;;;3.20;3.00;;;13.30;24.50;;;;;;10486418;28;20228;-73
2021/04/02 18:53:52;;;;;;;3.70;3.40;;;13.30;24.60;;;;;;10489274;28;20220;-73
2021/04/02 18:58:55;;;;;;;3.23;2.93;;;13.20;24.70;;;;;;10486115;28;20232;-73
2021/04/02 19:03:58;;;;;;;3.47;3.17;;;13.20;24.70;;;;;;10489213;28;20238;-73
2021/04/02 19:09:00;;;;;;;3.27;2.97;;;13.10;24.70;;;;;;10485044;28;20221;-73
2021/04/02 19:14:04;;;;;;;2.87;2.60;;;13.00;24.70;;;;;;10486495;28;20692;-73
2021/04/02 19:19:06;;;;;;;2.70;2.50;;;13.00;24.80;;;;;;10486930;28;20614;-73
2021/04/02 19:24:10;;;;;;;2.90;2.70;;;12.90;24.80;;;;;;10486700;28;20239;-73
2021/04/02 19:29:13;;;;;;;2.90;2.60;;;12.80;24.90;;;;;;10486480;28;20660;-73
2021/04/02 19:34:15;;;;;;;2.97;2.77;;;12.80;25.00;;;;;;10492264;28;20236;-73
2021/04/02 19:39:18;;;;;;;2.73;2.53;;;12.70;25.00;;;;;;10474579;28;20236;-72
2021/04/02 19:44:21;;;;;;;2.57;2.37;;;12.70;25.10;;;;;;10486011;28;20224;-72
2021/04/02 19:49:23;;;;;;;2.63;2.43;;;12.60;25.20;;;;;;10487501;28;20224;-72
2021/04/02 19:54:26;;;;;;;2.77;2.57;;;12.60;25.10;;;;;;10486616;28;20227;-72
2021/04/02 19:59:29;;;;;;;3.47;2.73;;;12.50;25.20;;;;;;10487957;28;20298;-72
2021/04/02 20:04:31;;;;;;;2.83;2.63;;;12.50;25.30;;;;;;10487162;28;20232;-72
2021/04/02 20:09:33;;;;;;;3.20;2.90;;;12.40;25.10;;;;;;10489114;28;20232;-72
2021/04/02 20:14:36;;;;;;;3.07;2.77;;;12.30;25.20;;;;;;10492613;28;20228;-72
2021/04/02 20:19:39;;;;;;;2.73;2.53;;;12.30;25.40;;;;;;10491261;28;20230;-72
2021/04/02 20:24:42;;;;;;;2.63;2.43;;;12.20;25.30;;;;;;10494069;28;20227;-71
2021/04/02 20:29:45;;;;;;;2.70;2.50;;;12.20;25.50;;;;;;10492645;28;20228;-71
2021/04/02 20:34:47;;;;;;;2.70;2.50;;;12.10;25.50;;;;;;10495646;28;20918;-72
2021/04/02 20:39:50;;;;;;;2.80;2.60;;;12.00;25.50;;;;;;10494031;28;20270;-71
2021/04/02 20:44:53;;;;;;;3.00;2.77;;;12.00;25.60;;;;;;10487905;28;20311;-72
2021/04/02 20:49:55;;;;;;;2.90;2.70;;;11.90;25.80;;;;;;10489155;28;20236;-72
2021/04/02 20:54:57;;;;;;;2.87;2.67;;;11.90;25.70;;;;;;10487213;28;20700;-71
2021/04/02 21:00:00;;;;;;;2.90;2.70;;;11.90;25.80;;;;;;10488977;28;20220;-72
2021/04/02 21:05:03;;;;;;;3.23;2.93;;;11.80;26.00;;;;;;10485022;28;20221;-72
2021/04/02 21:10:07;;;;;;;2.97;2.77;;;11.80;26.00;;;;;;10489890;28;21432;-72
2021/04/02 21:15:13;;;;;;;2.90;2.70;;;11.80;26.10;;;;;;10500064;28;20220;-72
2021/04/02 21:20:18;;;;;;;2.83;2.63;;;11.80;26.30;;;;;;10491799;28;20227;-72
2021/04/02 21:25:20;;;;;;;2.87;2.67;;;11.80;26.30;;;;;;10490764;28;20832;-72
2021/04/02 21:30:24;;;;;;;3.67;2.63;;;11.80;26.30;;;;;;10491030;28;20723;-72
2021/04/02 21:35:29;;;;;;;2.70;2.50;;;11.80;26.40;;;;;;10492898;28;20220;-72
2021/04/02 21:40:31;;;;;;;3.20;3.00;;;11.80;26.30;;;;;;10490760;28;20232;-72
2021/04/02 21:45:34;;;;;;;3.63;3.33;;;11.90;26.60;;;;;;10491625;28;20224;-72
2021/04/02 21:50:36;;;;;;;3.80;3.50;;;11.90;26.60;;;;;;10491983;28;20240;-71
2021/04/02 21:55:38;;;;;;;3.50;3.20;;;11.80;26.50;;;;;;10488080;28;20224;-71
2021/04/02 22:00:57;;;;;;;3.90;3.60;;;11.80;26.50;;;;;;10491956;28;20657;-71
2021/04/02 22:05:59;;;;;;;3.80;3.50;;;11.70;26.60;;;;;;10490631;28;20250;-71
2021/04/02 22:11:03;;;;;;;4.00;3.70;;;11.60;26.50;;;;;;10491757;28;20311;-72
2021/04/02 22:16:07;;;;;;;3.97;3.67;;;11.50;26.60;;;;;;10486491;28;20260;-72
2021/04/02 22:21:09;;;;;;;4.33;3.87;;;11.50;26.90;;;;;;10493421;28;20603;-71
2021/04/02 22:26:12;;;;;;;3.80;3.50;;;11.40;26.70;;;;;;10490115;28;20249;-71
2021/04/02 22:31:19;;;;;;;3.73;3.43;;;11.30;26.80;;;;;;10489705;28;20220;-72
2021/04/02 22:36:23;;;;;;;4.10;3.80;;;11.30;27.20;;;;;;10491614;28;20239;-72
2021/04/02 22:41:25;;;;;;;3.83;3.53;;;11.30;26.90;;;;;;10490293;28;20224;-72
2021/04/02 22:46:28;;;;;;;3.63;3.33;;;11.30;26.90;;;;;;10489872;28;20297;-72
2021/04/02 22:51:30;;;;;;;3.87;3.47;;;11.20;27.00;;;;;;10489761;28;20235;-72
2021/04/02 22:56:32;;;;;;;3.47;3.17;;;11.10;27.00;;;;;;10492913;28;20238;-71
2021/04/02 23:01:36;;;;;;;4.40;4.10;;;11.10;26.90;;;;;;10489022;28;20662;-72
2021/04/02 23:06:38;;;;;;;3.67;3.37;;;11.10;27.10;;;;;;10487967;28;20228;-71
2021/04/02 23:11:40;;;;;;;3.63;3.33;;;11.00;26.90;;;;;;10492925;28;20260;-72
2021/04/02 23:16:44;;;;;;;4.03;3.73;;;11.00;27.00;;;;;;10490400;28;20601;-72
2021/04/02 23:21:46;;;;;;;3.60;3.30;;;11.00;27.20;;;;;;10487356;28;20319;-72
2021/04/02 23:26:48;;;;;;;3.53;3.23;;;11.00;27.00;;;;;;10486670;28;20224;-72
2021/04/02 23:31:51;;;;;;;3.80;3.50;;;10.90;27.00;;;;;;10490654;28;20238;-72
2021/04/02 23:36:53;;;;;;;4.60;3.27;;;10.90;27.00;;;;;;10489188;28;20236;-72
2021/04/02 23:41:56;;;;;;;3.70;3.40;;;10.90;26.90;;;;;;10489235;28;20236;-72
2021/04/02 23:46:59;;;;;;;4.13;3.60;;;10.80;26.90;;;;;;10480523;28;20231;-72
2021/04/02 23:52:01;;;;;;;4.40;4.00;;;10.60;27.00;;;;;;10485664;28;20282;-72
2021/04/02 23:57:05;;;;;;;4.50;4.10;;;10.50;26.90;;;;;;10488940;28;20248;-72
